Loggieville, Canada
Current Conditions -  °F | °C
As of 3:00 PM on Friday 28 Nov 2014 (Local Time) from CZBF Reporting Station
Light Snow Light Snow  
Wind Chill: 21°   Ceiling: 8000
Heat Index: 21°   Visibility: 10mi
Dew Point: 12°   Wind: 3mph
Humidity: 68%   Direction: 340°NNW
Pressure: 29.99"   Gusts: NA
Location:  47.07°N, 65.38°W
Report Text: CZBF 281900Z 34003KT 280V030 10SM -SN BKN080 OVC120 M06/M11 A2999 RMK AC6AS2 SLP160
Loading
Personal Weather Stations






























Interactive Weather Map New forecast layout! Learn more

10-Day Weather Forecast

Advertisements
Track Severe Weather on mobile